Time;durP1;ratioP1;P1;durP2;ratioP2;P2;SDS_P1;SDS_P2;PMS_P1;PMS_P2;Temp;Humidity;BMP_temperature;BMP_pressure;BME280_temperature;BME280_humidity;BME280_pressure;Samples;Min_cycle;Max_cycle;Signal;HPM_P1;HPM_P2
2023/01/16 00:00:03;;;;;;;2.25;1.60;;;3.90;70.90;;;;;;5073580;28;20044;-64
2023/01/16 00:02:30;;;;;;;3.33;1.75;;;3.90;70.80;;;;;;5086606;28;20059;-63
2023/01/16 00:04:56;;;;;;;2.30;1.60;;;3.90;70.70;;;;;;5070731;28;20025;-63
2023/01/16 00:07:21;;;;;;;3.83;1.70;;;3.90;70.80;;;;;;5085833;28;20080;-63
2023/01/16 00:09:47;;;;;;;4.40;2.13;;;3.80;70.70;;;;;;5081296;28;20053;-63
2023/01/16 00:12:13;;;;;;;7.40;2.45;;;3.80;70.80;;;;;;5076155;28;20078;-63
2023/01/16 00:14:38;;;;;;;7.05;2.63;;;3.80;70.80;;;;;;5082512;28;20108;-63
2023/01/16 00:17:04;;;;;;;4.30;2.40;;;3.80;70.90;;;;;;5077882;28;20041;-63
2023/01/16 00:19:29;;;;;;;5.55;2.67;;;3.80;70.90;;;;;;5073263;28;20082;-64
2023/01/16 00:21:55;;;;;;;7.88;3.08;;;3.80;70.90;;;;;;5072658;28;20025;-64
2023/01/16 00:24:21;;;;;;;6.45;2.88;;;3.80;70.90;;;;;;5078108;28;20484;-62
2023/01/16 00:26:50;;;;;;;6.95;2.85;;;3.80;71.00;;;;;;5074437;28;20035;-63
2023/01/16 00:29:16;;;;;;;4.22;2.20;;;3.70;71.00;;;;;;5075020;28;20024;-63
2023/01/16 00:31:42;;;;;;;4.60;1.80;;;3.70;71.00;;;;;;5082789;28;20057;-65
2023/01/16 00:34:07;;;;;;;2.40;1.50;;;3.70;71.00;;;;;;5085981;28;20070;-62
2023/01/16 00:36:33;;;;;;;4.45;1.42;;;3.70;71.10;;;;;;5070375;28;20070;-63
2023/01/16 00:38:59;;;;;;;3.42;1.52;;;3.80;71.20;;;;;;5080154;28;20069;-63
2023/01/16 00:41:24;;;;;;;1.95;1.20;;;3.70;71.10;;;;;;5084473;28;20043;-63
2023/01/16 00:43:50;;;;;;;2.30;1.50;;;3.70;71.10;;;;;;5083746;28;20033;-64
2023/01/16 00:46:16;;;;;;;5.93;1.40;;;3.80;71.20;;;;;;5070629;28;20020;-64
2023/01/16 00:48:41;;;;;;;1.27;1.02;;;3.80;71.20;;;;;;5086884;28;20024;-64
2023/01/16 00:51:07;;;;;;;1.15;1.02;;;3.80;71.20;;;;;;5074742;28;20046;-64
2023/01/16 00:53:33;;;;;;;2.88;1.45;;;3.80;71.20;;;;;;5079446;28;20067;-63
2023/01/16 00:55:58;;;;;;;1.33;1.20;;;3.80;71.10;;;;;;5080769;28;20044;-64
2023/01/16 00:58:24;;;;;;;3.78;1.40;;;3.80;71.00;;;;;;5080315;28;20080;-63
2023/01/16 01:00:50;;;;;;;4.32;1.90;;;3.80;71.00;;;;;;5072995;28;20499;-64
2023/01/16 01:03:15;;;;;;;7.72;2.38;;;3.80;71.00;;;;;;5082216;28;20112;-64
2023/01/16 01:05:41;;;;;;;2.65;1.65;;;3.80;70.90;;;;;;5079143;28;20028;-62
2023/01/16 01:08:07;;;;;;;2.92;1.27;;;3.80;70.80;;;;;;5081543;28;20033;-63
2023/01/16 01:10:36;;;;;;;3.60;1.23;;;4.00;71.00;;;;;;5083931;28;20054;-64
2023/01/16 01:13:01;;;;;;;1.27;1.17;;;3.80;70.80;;;;;;5072642;28;20035;-64
2023/01/16 01:15:27;;;;;;;1.13;1.05;;;3.70;70.80;;;;;;5072390;28;20029;-63
2023/01/16 01:17:52;;;;;;;1.77;1.10;;;3.70;70.90;;;;;;5074905;28;20449;-63
2023/01/16 01:20:18;;;;;;;4.25;1.55;;;3.70;70.90;;;;;;5075686;28;20056;-63
2023/01/16 01:22:45;;;;;;;4.43;1.25;;;3.70;70.90;;;;;;5070307;28;20025;-63
2023/01/16 01:25:11;;;;;;;2.83;1.30;;;3.70;71.00;;;;;;5083581;28;20016;-62
2023/01/16 01:27:37;;;;;;;3.65;1.10;;;3.70;71.00;;;;;;5075713;28;20024;-64
2023/01/16 01:30:03;;;;;;;2.70;1.30;;;3.70;71.00;;;;;;5084417;28;20121;-64
2023/01/16 01:32:29;;;;;;;4.53;1.40;;;3.70;71.00;;;;;;5085948;28;20686;-64
2023/01/16 01:34:54;;;;;;;2.15;1.13;;;3.60;70.80;;;;;;5084206;28;20040;-64
2023/01/16 01:37:20;;;;;;;2.95;1.30;;;3.60;70.80;;;;;;5072034;28;20051;-64
2023/01/16 01:39:46;;;;;;;4.90;1.40;;;3.60;70.80;;;;;;5085115;28;20486;-64
2023/01/16 01:45:00;;;;;;;1.33;1.00;;;3.60;70.80;;;;;;5079523;28;20066;-63
2023/01/16 01:47:31;;;;;;;1.42;1.00;;;3.60;70.80;;;;;;5087119;28;20114;-64
2023/01/16 01:50:01;;;;;;;2.75;1.10;;;3.60;70.80;;;;;;5080107;28;20032;-64
2023/01/16 01:52:29;;;;;;;4.57;1.35;;;3.50;70.90;;;;;;5082081;28;20048;-64
2023/01/16 01:55:00;;;;;;;1.40;0.95;;;3.50;70.90;;;;;;5085111;28;20043;-64
2023/01/16 01:57:33;;;;;;;2.35;1.08;;;3.80;71.10;;;;;;5085538;28;20085;-65
2023/01/16 02:00:06;;;;;;;2.80;1.40;;;3.50;70.90;;;;;;5076630;28;20025;-64
2023/01/16 02:02:36;;;;;;;1.10;0.95;;;3.50;71.00;;;;;;5076670;28;20025;-63
2023/01/16 02:05:05;;;;;;;2.88;1.95;;;3.40;71.00;;;;;;5078087;28;20020;-63
2023/01/16 02:07:32;;;;;;;4.38;2.90;;;3.40;71.10;;;;;;5082340;28;20039;-63
2023/01/16 02:10:34;;;;;;;4.88;2.15;;;3.40;71.10;;;;;;5084112;28;20016;-63
2023/01/16 02:13:01;;;;;;;4.78;1.50;;;3.40;71.20;;;;;;5083490;28;20493;-62
2023/01/16 02:15:27;;;;;;;2.05;1.15;;;3.30;70.90;;;;;;5078294;28;20035;-64
2023/01/16 02:20:49;;;;;;;1.30;1.00;;;3.30;70.90;;;;;;5078845;28;20062;-63
2023/01/16 02:23:20;;;;;;;3.22;1.10;;;3.30;71.10;;;;;;5077145;28;20059;-62
2023/01/16 02:26:12;;;;;;;3.13;1.20;;;3.30;71.10;;;;;;5080344;28;20041;-63
2023/01/16 02:29:12;;;;;;;5.93;1.73;;;3.30;71.30;;;;;;5070804;28;20025;-63
2023/01/16 02:31:40;;;;;;;2.10;1.10;;;3.30;71.20;;;;;;5075637;28;20532;-63
2023/01/16 02:34:29;;;;;;;2.55;1.20;;;3.20;71.00;;;;;;5082474;28;20033;-62
2023/01/16 02:37:15;;;;;;;2.08;1.23;;;3.20;71.00;;;;;;5080261;28;20032;-63
2023/01/16 02:39:59;;;;;;;2.70;1.38;;;3.20;70.90;;;;;;5083538;28;20031;-64
2023/01/16 02:42:45;;;;;;;3.03;1.10;;;3.20;70.80;;;;;;5080498;28;21012;-64
2023/01/16 02:45:28;;;;;;;2.47;1.20;;;3.20;70.80;;;;;;5087183;28;20028;-63
2023/01/16 02:48:03;;;;;;;1.55;1.23;;;3.20;70.70;;;;;;5081939;28;20017;-64
2023/01/16 02:50:41;;;;;;;2.55;1.27;;;3.10;70.70;;;;;;5079044;28;20024;-63
2023/01/16 02:53:19;;;;;;;4.53;1.50;;;3.10;70.70;;;;;;5082200;28;20411;-64
2023/01/16 02:56:02;;;;;;;3.72;1.20;;;3.00;70.70;;;;;;5085630;28;20061;-64
2023/01/16 02:58:32;;;;;;;2.97;1.17;;;3.00;70.80;;;;;;5076904;28;20033;-64
2023/01/16 03:00:59;;;;;;;2.35;1.40;;;3.00;70.80;;;;;;5077421;28;20024;-64
2023/01/16 03:03:31;;;;;;;3.15;1.23;;;3.20;70.90;;;;;;5082939;28;21223;-64
2023/01/16 03:06:06;;;;;;;5.38;1.30;;;3.20;70.70;;;;;;5082031;28;20043;-64
2023/01/16 03:08:48;;;;;;;1.70;1.00;;;2.90;70.50;;;;;;5075910;28;20032;-63
2023/01/16 03:11:28;;;;;;;1.75;1.13;;;2.90;70.40;;;;;;5080487;28;20036;-63
2023/01/16 03:13:59;;;;;;;5.60;1.38;;;2.80;70.40;;;;;;5075046;28;20021;-63
2023/01/16 03:16:42;;;;;;;1.40;1.30;;;2.80;70.30;;;;;;5078981;28;20044;-64
2023/01/16 03:19:19;;;;;;;1.92;1.35;;;2.70;70.30;;;;;;5014095;28;20035;-63
2023/01/16 03:21:54;;;;;;;1.77;1.13;;;2.70;70.40;;;;;;5081272;28;20032;-64
2023/01/16 03:24:31;;;;;;;2.08;1.50;;;2.70;70.70;;;;;;5081261;28;20024;-64
2023/01/16 03:27:20;;;;;;;3.00;1.55;;;2.60;71.00;;;;;;5067867;28;20037;-64
2023/01/16 03:29:59;;;;;;;2.53;1.42;;;2.60;71.30;;;;;;5083024;28;20040;-64
2023/01/16 03:32:28;;;;;;;4.28;1.63;;;2.50;71.40;;;;;;5078745;28;20044;-63
2023/01/16 03:34:55;;;;;;;1.90;1.60;;;2.50;71.40;;;;;;5081048;28;20036;-64
2023/01/16 03:37:36;;;;;;;1.60;1.35;;;2.50;71.30;;;;;;5085596;28;20430;-64
2023/01/16 03:40:04;;;;;;;4.03;1.30;;;2.50;71.10;;;;;;5079561;28;20028;-63
2023/01/16 03:42:37;;;;;;;2.75;1.80;;;2.50;70.90;;;;;;5071931;28;20081;-63
2023/01/16 03:45:11;;;;;;;2.83;1.43;;;2.50;70.80;;;;;;5075866;28;20052;-63
2023/01/16 03:47:43;;;;;;;2.72;1.38;;;2.40;70.60;;;;;;5073186;28;20021;-63
2023/01/16 03:50:12;;;;;;;3.35;1.65;;;2.60;70.70;;;;;;5080891;28;20032;-64
2023/01/16 03:52:48;;;;;;;4.07;1.70;;;2.40;70.70;;;;;;5073696;28;20048;-64
2023/01/16 03:55:33;;;;;;;2.10;1.70;;;2.40;70.80;;;;;;5082580;28;20036;-63
2023/01/16 03:58:08;;;;;;;3.10;1.42;;;2.40;71.00;;;;;;5077313;28;20032;-64
2023/01/16 04:01:09;;;;;;;4.75;2.33;;;2.30;70.90;;;;;;5069728;28;20036;-64
2023/01/16 04:03:46;;;;;;;3.30;1.60;;;2.30;70.90;;;;;;5070851;28;20025;-64
2023/01/16 04:06:20;;;;;;;2.95;1.48;;;2.30;70.70;;;;;;5081920;28;20046;-64
2023/01/16 04:08:48;;;;;;;4.63;1.50;;;2.30;70.70;;;;;;5084462;28;20025;-63
2023/01/16 04:11:17;;;;;;;2.08;1.52;;;2.30;70.70;;;;;;5074763;28;20021;-64
2023/01/16 04:13:45;;;;;;;2.42;1.25;;;2.20;71.30;;;;;;5081251;28;20033;-63
2023/01/16 04:16:18;;;;;;;3.15;1.55;;;2.20;70.80;;;;;;5079585;28;20497;-64
2023/01/16 04:18:45;;;;;;;2.13;1.40;;;2.40;71.10;;;;;;5080294;28;20039;-64
2023/01/16 04:21:10;;;;;;;3.10;1.42;;;2.20;71.10;;;;;;5083574;28;20065;-64
2023/01/16 04:23:36;;;;;;;3.22;1.45;;;2.50;72.00;;;;;;5077714;28;20478;-64
2023/01/16 04:26:02;;;;;;;2.33;1.20;;;2.20;71.10;;;;;;5073904;28;20179;-64
2023/01/16 04:28:28;;;;;;;3.65;1.35;;;2.20;71.10;;;;;;5074566;28;20040;-64
2023/01/16 04:30:54;;;;;;;3.42;1.80;;;2.30;71.30;;;;;;5078089;28;20031;-63
2023/01/16 04:33:19;;;;;;;2.72;1.55;;;2.20;71.30;;;;;;5082125;28;20037;-63
2023/01/16 04:35:45;;;;;;;8.80;2.30;;;2.20;71.30;;;;;;5087644;28;20044;-64
2023/01/16 04:38:12;;;;;;;8.50;2.63;;;2.50;71.40;;;;;;5079320;28;20543;-64
2023/01/16 04:40:37;;;;;;;3.13;1.88;;;2.10;71.20;;;;;;5078692;28;20021;-64
2023/01/16 04:43:03;;;;;;;3.03;1.77;;;2.10;71.40;;;;;;5080827;28;20043;-64
2023/01/16 04:45:30;;;;;;;3.83;1.98;;;2.10;71.50;;;;;;5076115;28;20047;-64
2023/01/16 04:47:56;;;;;;;3.83;1.92;;;2.20;71.50;;;;;;5085062;28;21133;-65
2023/01/16 04:50:21;;;;;;;5.15;2.53;;;2.10;71.50;;;;;;5077174;28;20038;-64
2023/01/16 04:52:47;;;;;;;4.38;2.60;;;2.30;71.70;;;;;;5078561;28;20188;-64
2023/01/16 04:55:13;;;;;;;4.57;2.40;;;2.40;71.80;;;;;;5074810;28;20116;-63
2023/01/16 04:57:39;;;;;;;3.88;2.25;;;2.10;71.50;;;;;;5081755;28;20021;-64
2023/01/16 05:00:07;;;;;;;4.45;2.55;;;2.10;71.70;;;;;;5084200;28;20358;-64
2023/01/16 05:02:33;;;;;;;5.05;2.45;;;2.10;71.80;;;;;;5091252;28;20024;-64
2023/01/16 05:04:59;;;;;;;5.50;2.38;;;2.20;71.80;;;;;;5073913;28;20025;-64
2023/01/16 05:07:26;;;;;;;4.47;2.30;;;2.10;71.50;;;;;;5075794;28;20025;-64
2023/01/16 05:09:52;;;;;;;4.47;2.35;;;2.10;71.40;;;;;;5085735;28;20108;-63
2023/01/16 05:12:18;;;;;;;6.07;2.72;;;2.40;71.50;;;;;;5101640;28;20056;-64
2023/01/16 05:14:43;;;;;;;4.63;2.78;;;2.20;71.50;;;;;;5087570;28;20062;-64
2023/01/16 05:17:09;;;;;;;8.10;2.40;;;2.10;71.40;;;;;;5092049;28;20032;-64
2023/01/16 05:19:35;;;;;;;6.40;2.58;;;2.10;71.30;;;;;;5088670;28;20025;-64
2023/01/16 05:22:00;;;;;;;5.13;2.83;;;2.10;71.30;;;;;;5086766;28;20375;-63
2023/01/16 05:24:26;;;;;;;7.68;3.45;;;2.10;71.50;;;;;;5084648;28;20035;-64
2023/01/16 05:26:52;;;;;;;3.95;2.60;;;2.10;71.60;;;;;;5086609;28;20343;-64
2023/01/16 05:29:17;;;;;;;4.57;2.70;;;2.00;71.70;;;;;;5082409;28;20065;-64
2023/01/16 05:31:43;;;;;;;5.18;2.63;;;2.00;71.80;;;;;;5079601;28;20138;-64
2023/01/16 05:34:09;;;;;;;5.70;2.67;;;2.00;72.00;;;;;;5091195;28;20024;-64
2023/01/16 05:36:35;;;;;;;15.07;3.53;;;2.00;71.90;;;;;;5095140;28;20072;-63
2023/01/16 05:39:01;;;;;;;7.40;3.60;;;2.00;71.90;;;;;;5076533;28;20409;-63
2023/01/16 05:41:26;;;;;;;7.35;3.10;;;2.00;72.70;;;;;;5076255;28;20103;-64
2023/01/16 05:43:52;;;;;;;5.65;2.58;;;2.00;72.00;;;;;;5074629;28;20032;-63
2023/01/16 05:46:18;;;;;;;3.90;2.63;;;2.00;72.10;;;;;;5080895;28;20053;-64
2023/01/16 05:48:43;;;;;;;5.85;3.10;;;2.00;72.00;;;;;;5078592;28;20374;-64
2023/01/16 05:51:11;;;;;;;7.30;2.97;;;1.90;71.90;;;;;;5091499;28;20095;-64
2023/01/16 05:53:37;;;;;;;7.38;3.22;;;2.00;71.80;;;;;;5081895;28;20430;-63
2023/01/16 05:56:10;;;;;;;7.95;3.25;;;1.90;71.70;;;;;;5079015;28;20434;-64
2023/01/16 05:58:36;;;;;;;9.10;3.30;;;1.90;71.80;;;;;;5086428;28;20552;-64
2023/01/16 06:01:02;;;;;;;8.40;3.38;;;1.90;71.90;;;;;;5086074;28;20103;-64
2023/01/16 06:03:27;;;;;;;9.27;3.47;;;1.90;71.90;;;;;;5089195;28;20067;-64
2023/01/16 06:05:53;;;;;;;4.85;3.10;;;1.90;72.00;;;;;;5077668;28;20050;-64
2023/01/16 06:08:19;;;;;;;5.82;3.63;;;1.90;72.10;;;;;;5077222;28;20025;-63
2023/01/16 06:10:45;;;;;;;4.93;3.28;;;1.90;72.10;;;;;;5078334;28;20037;-64
2023/01/16 06:13:11;;;;;;;6.70;3.75;;;1.90;72.00;;;;;;5075647;28;20036;-63
2023/01/16 06:15:36;;;;;;;7.40;3.63;;;1.90;72.00;;;;;;5075344;28;20044;-62
2023/01/16 06:18:02;;;;;;;6.20;3.55;;;2.20;72.30;;;;;;5081812;28;20039;-64
2023/01/16 06:20:28;;;;;;;4.15;3.08;;;1.80;71.90;;;;;;5087417;28;20025;-64
2023/01/16 06:22:53;;;;;;;7.10;3.75;;;1.90;72.60;;;;;;5077411;28;20034;-64
2023/01/16 06:25:19;;;;;;;8.38;3.53;;;1.80;71.70;;;;;;5074039;28;20043;-64
2023/01/16 06:27:51;;;;;;;9.18;3.90;;;1.80;71.80;;;;;;5083074;28;20037;-64
2023/01/16 06:30:18;;;;;;;9.77;4.00;;;2.00;71.80;;;;;;5089947;28;20024;-63
2023/01/16 06:32:47;;;;;;;4.50;3.47;;;1.90;71.50;;;;;;5083877;28;20041;-65
2023/01/16 06:35:13;;;;;;;3.95;3.00;;;1.80;71.40;;;;;;5078035;28;20043;-63
2023/01/16 06:37:39;;;;;;;4.65;3.17;;;1.80;71.50;;;;;;5084876;28;20112;-65
2023/01/16 06:40:05;;;;;;;6.88;3.25;;;2.00;71.70;;;;;;5080205;28;20092;-65
2023/01/16 06:42:30;;;;;;;7.53;3.33;;;1.70;71.40;;;;;;5073792;28;20438;-62
2023/01/16 06:44:56;;;;;;;6.25;3.38;;;1.70;71.50;;;;;;5073162;28;20041;-64
2023/01/16 06:47:22;;;;;;;5.82;3.47;;;1.70;71.50;;;;;;5079145;28;20020;-64
2023/01/16 06:49:48;;;;;;;7.40;4.13;;;1.70;71.40;;;;;;5074398;28;20016;-63
2023/01/16 06:52:13;;;;;;;6.07;3.30;;;1.60;71.20;;;;;;5083703;28;20045;-62
2023/01/16 06:54:39;;;;;;;7.18;3.75;;;1.60;71.20;;;;;;5075934;28;20036;-66
2023/01/16 06:57:05;;;;;;;7.13;4.13;;;1.60;71.30;;;;;;5073196;28;20040;-63
2023/01/16 06:59:30;;;;;;;6.15;4.15;;;1.70;71.30;;;;;;5085113;28;20028;-63
2023/01/16 07:01:56;;;;;;;8.63;5.20;;;1.60;71.30;;;;;;5078397;28;20028;-64
2023/01/16 07:04:22;;;;;;;9.13;4.75;;;1.50;71.20;;;;;;5080093;28;20406;-65
2023/01/16 07:06:50;;;;;;;20.58;8.13;;;1.50;71.30;;;;;;5080473;28;20029;-65
2023/01/16 07:09:16;;;;;;;17.58;6.95;;;1.60;71.40;;;;;;5084491;28;20061;-64
2023/01/16 07:11:41;;;;;;;13.95;5.93;;;1.50;71.50;;;;;;5081433;28;20020;-63
2023/01/16 07:22:38;;;;;;;9.35;4.70;;;1.50;71.60;;;;;;5050606;28;20039;-65
2023/01/16 07:25:09;;;;;;;6.38;3.50;;;1.70;71.60;;;;;;5063133;28;20084;-64
2023/01/16 07:27:35;;;;;;;5.35;3.00;;;1.40;71.30;;;;;;5055701;28;20170;-64
2023/01/16 07:30:01;;;;;;;9.55;3.45;;;1.50;71.70;;;;;;5060289;28;20033;-64
2023/01/16 07:32:26;;;;;;;7.03;2.85;;;1.70;72.10;;;;;;5063140;28;20021;-65
2023/01/16 07:34:52;;;;;;;8.63;3.53;;;1.50;72.00;;;;;;5061689;28;20025;-64
2023/01/16 07:37:17;;;;;;;8.95;4.40;;;1.50;72.10;;;;;;5059975;28;20033;-64
2023/01/16 07:39:43;;;;;;;6.45;3.83;;;1.60;72.40;;;;;;5053250;28;20531;-65
2023/01/16 07:42:09;;;;;;;6.20;3.92;;;1.60;72.60;;;;;;5056152;28;20047;-64
2023/01/16 07:44:34;;;;;;;7.30;3.95;;;1.70;72.80;;;;;;5056884;28;20029;-64
2023/01/16 07:47:00;;;;;;;7.63;3.45;;;1.80;73.00;;;;;;5058423;28;20041;-64
2023/01/16 07:49:26;;;;;;;10.20;4.00;;;1.80;73.10;;;;;;5053261;28;20394;-64
2023/01/16 07:51:51;;;;;;;6.55;3.53;;;1.90;73.20;;;;;;5058570;28;20053;-64
2023/01/16 07:54:17;;;;;;;12.05;4.15;;;1.90;73.00;;;;;;5059003;28;20065;-64
2023/01/16 07:56:43;;;;;;;6.88;3.30;;;2.00;73.00;;;;;;5058916;28;20099;-64
2023/01/16 07:59:08;;;;;;;9.40;3.60;;;2.10;73.00;;;;;;5055873;28;20084;-64
2023/01/16 08:01:34;;;;;;;3.42;2.35;;;2.20;73.10;;;;;;5054429;28;20021;-64
2023/01/16 08:04:00;;;;;;;8.43;2.78;;;2.50;73.20;;;;;;5054730;28;20439;-64
2023/01/16 08:06:25;;;;;;;5.35;2.90;;;2.40;73.00;;;;;;5046794;28;20506;-64
2023/01/16 08:08:52;;;;;;;4.43;2.40;;;2.70;73.10;;;;;;5050084;28;20388;-64
2023/01/16 08:11:38;;;;;;;5.88;2.45;;;2.50;72.80;;;;;;5045388;28;20025;-64
2023/01/16 08:14:06;;;;;;;3.63;2.20;;;2.60;72.70;;;;;;5052213;28;20047;-64
2023/01/16 08:16:32;;;;;;;4.30;2.28;;;2.70;72.40;;;;;;5047392;28;20045;-64
2023/01/16 08:18:57;;;;;;;4.97;2.35;;;2.90;72.50;;;;;;5052314;28;20404;-64
2023/01/16 08:21:23;;;;;;;7.40;2.22;;;2.80;72.30;;;;;;5049791;28;20100;-64
2023/01/16 08:23:49;;;;;;;5.05;2.70;;;2.90;72.10;;;;;;5047439;28;20145;-64
2023/01/16 08:26:15;;;;;;;6.43;2.90;;;2.90;71.90;;;;;;5052239;28;20036;-64
2023/01/16 08:28:41;;;;;;;6.47;2.85;;;3.00;71.90;;;;;;5047367;28;20040;-64
2023/01/16 08:31:13;;;;;;;5.30;2.63;;;3.00;71.80;;;;;;5049681;28;20024;-64
2023/01/16 08:33:39;;;;;;;5.57;3.05;;;3.10;71.90;;;;;;5053974;28;20046;-64
2023/01/16 08:36:07;;;;;;;5.55;3.03;;;3.10;71.90;;;;;;5053803;28;20040;-64
2023/01/16 08:38:33;;;;;;;8.10;3.55;;;3.20;72.60;;;;;;5051258;28;20024;-64
2023/01/16 08:40:58;;;;;;;6.80;3.60;;;3.30;71.90;;;;;;5049474;28;20087;-64
2023/01/16 08:51:53;;;;;;;4.15;2.35;;;3.70;72.20;;;;;;5062784;28;20063;-64
2023/01/16 08:54:19;;;;;;;18.00;3.20;;;3.80;72.00;;;;;;5069566;28;20025;-64
2023/01/16 08:56:44;;;;;;;5.82;3.22;;;4.00;71.90;;;;;;5075782;28;20063;-65
2023/01/16 08:59:10;;;;;;;7.45;3.75;;;4.10;71.90;;;;;;5077447;28;20020;-64
2023/01/16 09:01:38;;;;;;;6.13;3.15;;;4.30;71.80;;;;;;5076197;28;20028;-64
2023/01/16 09:04:04;;;;;;;6.95;3.20;;;4.40;71.50;;;;;;5066057;28;20112;-64
2023/01/16 09:06:30;;;;;;;7.20;3.22;;;4.60;71.00;;;;;;5064127;28;20021;-64
2023/01/16 09:08:56;;;;;;;7.97;3.40;;;4.70;70.50;;;;;;5068992;28;20039;-64
2023/01/16 09:14:06;;;;;;;6.68;3.25;;;4.80;70.00;;;;;;5073668;28;20070;-64
2023/01/16 09:16:32;;;;;;;6.43;3.65;;;4.80;69.80;;;;;;5075802;28;20041;-64
2023/01/16 09:18:57;;;;;;;8.02;3.40;;;4.80;69.80;;;;;;5079766;28;20586;-64
2023/01/16 09:21:24;;;;;;;7.60;3.47;;;4.80;69.90;;;;;;5088923;28;20031;-64
2023/01/16 09:23:51;;;;;;;6.45;3.58;;;4.80;69.80;;;;;;5083344;28;20054;-64
2023/01/16 09:26:17;;;;;;;19.33;5.72;;;4.90;69.90;;;;;;5086513;28;20026;-64
2023/01/16 09:28:43;;;;;;;13.80;4.30;;;4.90;69.90;;;;;;5073909;28;20297;-64
2023/01/16 09:31:08;;;;;;;6.10;3.50;;;5.00;70.00;;;;;;5085461;28;20055;-64
2023/01/16 09:33:34;;;;;;;7.80;3.10;;;5.10;70.00;;;;;;5066977;28;20037;-64
2023/01/16 09:35:59;;;;;;;6.15;3.30;;;5.10;69.70;;;;;;5083252;28;20036;-64
2023/01/16 09:38:27;;;;;;;6.10;2.90;;;5.20;69.70;;;;;;5081373;28;20016;-64
2023/01/16 09:40:55;;;;;;;12.07;3.83;;;5.30;70.50;;;;;;5073136;28;20032;-64
2023/01/16 09:43:35;;;;;;;8.55;3.83;;;5.30;69.40;;;;;;5081811;28;20036;-64
2023/01/16 09:46:19;;;;;;;4.97;2.58;;;5.40;69.30;;;;;;5075723;28;20028;-64
2023/01/16 09:48:56;;;;;;;5.17;2.40;;;5.40;68.60;;;;;;5084799;28;20043;-64
2023/01/16 09:51:32;;;;;;;5.30;2.42;;;5.50;68.50;;;;;;5083916;28;20290;-64
2023/01/16 09:59:46;;;;;;;6.78;2.63;;;5.50;68.20;;;;;;5081052;28;20108;-64
2023/01/16 10:02:29;;;;;;;15.63;3.33;;;5.50;68.30;;;;;;5082504;28;20043;-64
2023/01/16 10:04:56;;;;;;;5.63;2.85;;;5.60;68.20;;;;;;5080352;28;20024;-65
2023/01/16 10:07:46;;;;;;;4.78;2.50;;;5.50;68.30;;;;;;5082177;28;20051;-64
2023/01/16 10:10:43;;;;;;;5.15;2.25;;;5.60;68.00;;;;;;5074663;28;20025;-65
2023/01/16 10:13:29;;;;;;;4.97;2.10;;;5.60;67.80;;;;;;5085897;28;20420;-63
2023/01/16 10:16:17;;;;;;;4.72;2.55;;;5.50;68.00;;;;;;5076183;28;20040;-64
2023/01/16 10:19:27;;;;;;;4.20;2.33;;;5.50;67.90;;;;;;5080938;28;20088;-64
2023/01/16 10:22:01;;;;;;;5.88;3.33;;;5.50;68.00;;;;;;5087996;28;20109;-64
2023/01/16 10:25:03;;;;;;;8.65;4.00;;;5.50;68.00;;;;;;5081070;28;20489;-63
2023/01/16 10:27:40;;;;;;;5.20;3.13;;;5.50;67.50;;;;;;5083626;28;20087;-64
2023/01/16 10:30:21;;;;;;;6.10;2.72;;;5.50;67.80;;;;;;5110289;27;20341;-64
2023/01/16 10:32:56;;;;;;;5.13;2.72;;;5.40;67.60;;;;;;5076921;28;20597;-64
2023/01/16 10:35:26;;;;;;;3.45;2.33;;;5.50;67.90;;;;;;5078956;28;20063;-65
2023/01/16 10:37:55;;;;;;;5.20;2.40;;;5.50;68.20;;;;;;5084162;28;20190;-63
2023/01/16 10:40:25;;;;;;;5.72;2.28;;;5.50;68.00;;;;;;5081619;28;20024;-64
2023/01/16 10:51:27;;;;;;;5.22;2.15;;;5.60;67.90;;;;;;5079095;28;20074;-65
2023/01/16 10:53:53;;;;;;;4.97;2.15;;;5.60;68.00;;;;;;5080867;28;21024;-65
2023/01/16 10:56:19;;;;;;;6.80;3.55;;;5.70;68.10;;;;;;5083097;28;20040;-64
2023/01/16 10:58:44;;;;;;;4.43;2.65;;;5.70;68.00;;;;;;5080908;28;20047;-65
2023/01/16 11:01:22;;;;;;;4.47;2.30;;;5.80;67.90;;;;;;5075729;28;20353;-65
2023/01/16 11:03:55;;;;;;;7.43;4.50;;;5.80;67.40;;;;;;5076336;28;20046;-63
2023/01/16 11:06:22;;;;;;;8.55;4.30;;;5.90;67.60;;;;;;5085766;28;20515;-64
2023/01/16 11:08:53;;;;;;;7.28;3.58;;;6.00;67.80;;;;;;5084572;28;20028;-64
2023/01/16 11:20:26;;;;;;;6.22;3.20;;;6.10;66.70;;;;;;5069748;28;20064;-65
2023/01/16 11:23:14;;;;;;;8.50;3.20;;;6.10;66.80;;;;;;5084973;28;20032;-64
2023/01/16 11:25:40;;;;;;;7.10;3.10;;;6.10;66.80;;;;;;5086547;28;20020;-63
2023/01/16 11:28:12;;;;;;;7.55;3.70;;;6.00;66.80;;;;;;5079579;28;20099;-66
2023/01/16 11:30:40;;;;;;;8.80;2.78;;;6.00;66.70;;;;;;5078418;28;20039;-64
2023/01/16 11:33:15;;;;;;;5.57;2.65;;;6.00;66.40;;;;;;5075740;28;20073;-65
2023/01/16 11:35:43;;;;;;;;;;;6.00;66.40;;;;;;5072251;28;20471;-64
2023/01/16 11:38:14;;;;;;;3.92;1.90;;;6.00;65.90;;;;;;5078551;28;19916;-65
2023/01/16 11:40:45;;;;;;;2.45;1.60;;;6.00;66.50;;;;;;5078773;28;20037;-64
2023/01/16 11:46:41;;;;;;;4.88;2.40;;;6.00;66.60;;;;;;5071533;28;20110;-65
2023/01/16 11:49:25;;;;;;;6.07;2.28;;;6.00;66.60;;;;;;5066404;28;20025;-65
2023/01/16 11:51:54;;;;;;;4.85;2.30;;;6.00;66.70;;;;;;5067661;28;20071;-63
2023/01/16 11:54:26;;;;;;;4.25;2.00;;;6.00;66.70;;;;;;5076621;28;20042;-65
2023/01/16 11:57:01;;;;;;;3.22;2.05;;;6.00;66.50;;;;;;5073353;28;20051;-63
2023/01/16 11:59:29;;;;;;;;;;;6.10;66.70;;;;;;5068394;28;20029;-65
2023/01/16 12:02:19;;;;;;;2.20;2.00;;;6.10;66.70;;;;;;5067670;28;19908;-63
2023/01/16 12:08:03;;;;;;;3.67;1.90;;;6.10;66.80;;;;;;5078057;28;20044;-64
2023/01/16 12:10:44;;;;;;;6.25;2.63;;;6.20;66.60;;;;;;5078942;28;20024;-63
2023/01/16 12:16:20;;;;;;;9.73;4.10;;;6.20;66.70;;;;;;5074859;28;20074;-64
2023/01/16 12:19:26;;;;;;;6.00;2.80;;;6.20;66.20;;;;;;5067329;28;20051;-64
2023/01/16 12:22:17;;;;;;;4.65;2.17;;;6.20;65.70;;;;;;5060631;28;20041;-65
2023/01/16 12:24:48;;;;;;;3.13;2.10;;;6.20;65.70;;;;;;5057568;28;20111;-65
2023/01/16 12:27:50;;;;;;;7.70;4.43;;;6.30;66.40;;;;;;5055171;28;20079;-64
2023/01/16 12:30:16;;;;;;;8.88;4.90;;;6.20;65.50;;;;;;5053423;28;20025;-65
2023/01/16 12:33:00;;;;;;;8.75;3.65;;;6.20;66.20;;;;;;5057133;28;20024;-65
2023/01/16 12:35:41;;;;;;;11.77;5.75;;;6.20;66.40;;;;;;5056825;28;20112;-65
2023/01/16 12:38:14;;;;;;;11.05;5.40;;;6.30;66.50;;;;;;5057878;28;20028;-64
2023/01/16 12:43:18;;;;;;;5.93;2.75;;;6.20;66.50;;;;;;5052017;28;20025;-65
2023/01/16 12:44:08;;;;;;;5.38;3.22;;;6.20;66.30;;;;;;5032151;28;20060;-64
2023/01/16 12:47:04;;;;;;;6.32;3.03;;;6.20;66.20;;;;;;5054237;28;20037;-63
2023/01/16 12:49:45;;;;;;;7.13;3.00;;;6.20;66.20;;;;;;5050486;28;20492;-65
2023/01/16 12:52:46;;;;;;;7.85;2.90;;;6.10;66.40;;;;;;5056133;28;20040;-64
2023/01/16 12:55:30;;;;;;;12.85;5.18;;;6.20;66.40;;;;;;5067619;28;20041;-64
2023/01/16 12:58:09;;;;;;;10.73;4.32;;;6.10;66.10;;;;;;5077279;28;20033;-64
2023/01/16 13:00:42;;;;;;;7.78;4.28;;;6.10;66.50;;;;;;5069867;28;20021;-64
2023/01/16 13:03:22;;;;;;;7.10;4.15;;;6.20;66.60;;;;;;5071425;28;20482;-64
2023/01/16 13:05:48;;;;;;;22.90;8.90;;;6.20;66.80;;;;;;5074522;28;20025;-64
2023/01/16 13:08:29;;;;;;;26.50;9.45;;;6.20;66.80;;;;;;5070782;28;20093;-64
2023/01/16 13:13:54;;;;;;;16.98;7.22;;;6.30;66.90;;;;;;5074055;28;20110;-63
2023/01/16 13:16:48;;;;;;;11.40;5.88;;;6.40;67.00;;;;;;5073740;28;20111;-63
2023/01/16 13:19:27;;;;;;;9.65;4.53;;;6.40;67.10;;;;;;5073583;28;20074;-65
2023/01/16 13:22:19;;;;;;;8.15;4.30;;;6.50;67.10;;;;;;5084395;28;20513;-63
2023/01/16 13:24:59;;;;;;;8.00;4.18;;;6.50;66.70;;;;;;5073199;28;20138;-63
2023/01/16 13:27:48;;;;;;;9.98;3.58;;;6.60;67.00;;;;;;5086228;28;20030;-63
2023/01/16 13:30:17;;;;;;;8.65;3.72;;;6.60;67.10;;;;;;5071952;28;20021;-65
2023/01/16 13:32:55;;;;;;;6.57;3.58;;;6.70;66.70;;;;;;5067399;28;20511;-64
2023/01/16 13:35:34;;;;;;;6.20;3.33;;;6.70;66.10;;;;;;5073252;28;20036;-62
2023/01/16 13:38:18;;;;;;;3.90;2.60;;;6.80;66.10;;;;;;5081864;28;20043;-63
2023/01/16 13:41:19;;;;;;;4.03;2.38;;;6.80;66.00;;;;;;5073475;28;20169;-65
2023/01/16 13:46:40;;;;;;;3.00;1.50;;;6.80;65.60;;;;;;5080111;28;20039;-63
2023/01/16 13:49:12;;;;;;;1.77;1.40;;;6.80;65.00;;;;;;5086126;28;20021;-63
2023/01/16 13:51:42;;;;;;;2.10;1.60;;;6.80;65.20;;;;;;5080606;28;20052;-63
2023/01/16 13:54:19;;;;;;;2.08;1.33;;;6.70;65.20;;;;;;5079858;28;20029;-63
2023/01/16 13:57:03;;;;;;;2.17;1.50;;;6.70;65.10;;;;;;5077293;28;20559;-64
2023/01/16 13:59:52;;;;;;;2.55;1.70;;;6.70;65.10;;;;;;5071286;28;20042;-64
2023/01/16 14:02:35;;;;;;;2.33;1.58;;;6.70;65.30;;;;;;5080125;28;20021;-63
2023/01/16 14:05:30;;;;;;;1.58;1.30;;;6.70;65.30;;;;;;5071391;28;20021;-63
2023/01/16 14:10:44;;;;;;;2.63;1.48;;;6.70;65.90;;;;;;5078473;28;20059;-64
2023/01/16 14:13:23;;;;;;;1.85;1.63;;;6.70;65.70;;;;;;5073962;28;20104;-63
2023/01/16 14:19:21;;;;;;;1.77;1.40;;;6.70;66.10;;;;;;5076074;28;20070;-63
2023/01/16 14:24:47;;;;;;;1.73;1.63;;;6.70;66.30;;;;;;5077289;28;20035;-63
2023/01/16 14:27:21;;;;;;;3.20;1.98;;;6.70;66.20;;;;;;5083129;28;20044;-63
2023/01/16 14:29:50;;;;;;;;;;;6.70;66.40;;;;;;5073153;28;20036;-63
2023/01/16 14:32:19;;;;;;;5.75;2.60;;;6.70;65.80;;;;;;5082538;28;19908;-64